createdAt,value
2017-10-31T00:01:50.856Z,14.80
2017-10-31T00:04:18.792Z,11.60
2017-10-31T00:06:46.668Z,8.97
2017-10-31T00:09:14.519Z,10.33
2017-10-31T00:11:42.378Z,7.47
2017-10-31T00:14:11.076Z,9.47
2017-10-31T00:16:39.022Z,8.97
2017-10-31T00:19:07.779Z,11.93
2017-10-31T00:21:35.682Z,15.20
2017-10-31T00:24:03.684Z,12.90
2017-10-31T00:26:31.578Z,7.80
2017-10-31T00:28:59.467Z,8.20
2017-10-31T00:31:28.085Z,12.77
2017-10-31T00:33:56.050Z,7.20
2017-10-31T00:36:24.002Z,8.50
2017-10-31T00:38:52.650Z,10.30
2017-10-31T00:41:20.530Z,11.50
2017-10-31T00:43:48.457Z,13.77
2017-10-31T00:46:16.405Z,6.77
2017-10-31T00:48:44.375Z,7.90
2017-10-31T00:51:12.270Z,10.23
2017-10-31T00:53:40.143Z,8.30
2017-10-31T00:56:08.035Z,9.13
2017-10-31T00:58:36.263Z,9.57
2017-10-31T01:01:04.166Z,12.83
2017-10-31T01:03:32.057Z,9.63
2017-10-31T01:06:00.004Z,8.77
2017-10-31T01:08:28.079Z,10.37
2017-10-31T01:10:55.972Z,7.03
2017-10-31T01:13:23.867Z,7.50
2017-10-31T01:15:51.702Z,8.07
2017-10-31T01:18:20.378Z,12.33
2017-10-31T01:20:49.050Z,13.80
2017-10-31T01:23:16.926Z,12.20
2017-10-31T01:25:45.612Z,9.43
2017-10-31T01:28:13.579Z,9.80
2017-10-31T01:30:41.494Z,12.00
2017-10-31T01:33:09.394Z,7.13
2017-10-31T01:35:37.265Z,9.90
2017-10-31T01:38:05.164Z,8.70
2017-10-31T01:40:33.887Z,8.93
2017-10-31T01:43:01.948Z,9.27
2017-10-31T01:45:29.972Z,8.50
2017-10-31T01:47:58.622Z,12.53
2017-10-31T01:50:26.690Z,8.47
2017-10-31T01:52:54.701Z,9.97
2017-10-31T01:55:22.661Z,20.13
2017-10-31T01:57:50.673Z,23.53
2017-10-31T02:00:18.776Z,8.77
2017-10-31T02:02:46.807Z,8.60
2017-10-31T02:05:15.729Z,7.80
2017-10-31T02:07:43.730Z,14.33
2017-10-31T02:10:11.711Z,8.77
2017-10-31T02:12:40.445Z,25.40
2017-10-31T02:15:08.575Z,25.80
2017-10-31T02:17:37.240Z,14.50
2017-10-31T02:20:05.173Z,28.53
2017-10-31T02:22:33.120Z,20.93
2017-10-31T02:25:01.044Z,14.77
2017-10-31T02:27:28.984Z,11.90
2017-10-31T02:29:56.919Z,13.93
2017-10-31T02:32:24.982Z,10.00
2017-10-31T02:34:53.727Z,13.40
2017-10-31T02:37:21.568Z,9.97
2017-10-31T02:39:49.488Z,11.83
2017-10-31T02:42:17.483Z,12.33
2017-10-31T02:44:45.452Z,12.90
2017-10-31T02:47:13.362Z,9.00
2017-10-31T02:49:41.305Z,7.63
2017-10-31T02:52:09.220Z,11.30
2017-10-31T02:54:37.083Z,13.30
2017-10-31T02:57:05.035Z,9.77
2017-10-31T02:59:32.956Z,11.23
2017-10-31T03:02:01.854Z,9.60
2017-10-31T03:04:29.808Z,10.17
2017-10-31T03:06:57.760Z,12.13
2017-10-31T03:09:26.555Z,13.20
2017-10-31T03:11:55.356Z,9.43
2017-10-31T03:14:23.401Z,10.63
2017-10-31T03:16:51.342Z,15.70
2017-10-31T03:19:19.325Z,10.90
2017-10-31T03:21:47.381Z,14.50
2017-10-31T03:24:15.302Z,10.10
2017-10-31T03:26:43.993Z,9.40
2017-10-31T03:29:11.914Z,12.23
2017-10-31T03:31:39.843Z,11.90
2017-10-31T03:34:07.747Z,7.00
2017-10-31T03:36:35.692Z,8.83
2017-10-31T03:39:03.628Z,8.43
2017-10-31T03:41:32.339Z,12.37
2017-10-31T03:44:00.295Z,8.53
2017-10-31T03:46:28.279Z,10.30
2017-10-31T03:48:56.304Z,14.83
2017-10-31T03:51:24.414Z,13.33
2017-10-31T03:53:52.367Z,5.53
2017-10-31T03:56:20.345Z,12.00
2017-10-31T03:58:48.252Z,8.50
2017-10-31T04:01:16.232Z,8.50
2017-10-31T04:03:44.185Z,10.43
2017-10-31T04:06:12.161Z,11.20
2017-10-31T04:08:40.140Z,11.07
2017-10-31T04:11:08.043Z,6.60
2017-10-31T04:13:36.984Z,8.90
2017-10-31T04:16:04.926Z,10.93
2017-10-31T04:18:32.787Z,8.20
2017-10-31T04:21:00.732Z,8.47
2017-10-31T04:23:28.759Z,5.73
2017-10-31T04:25:56.676Z,5.03
2017-10-31T04:28:25.926Z,6.20
2017-10-31T04:30:53.897Z,9.30
2017-10-31T04:33:21.747Z,14.07
2017-10-31T04:35:50.664Z,8.00
2017-10-31T04:38:18.615Z,5.73
2017-10-31T04:40:46.539Z,6.43
2017-10-31T04:43:14.685Z,7.47
2017-10-31T04:45:43.366Z,7.90
2017-10-31T04:48:11.543Z,5.97
2017-10-31T04:50:39.431Z,12.87
2017-10-31T04:53:08.132Z,11.20
2017-10-31T04:55:36.079Z,7.70
2017-10-31T04:58:04.779Z,6.07
2017-10-31T05:00:32.675Z,9.70
2017-10-31T05:03:00.922Z,8.03
2017-10-31T05:05:28.741Z,9.97
2017-10-31T05:07:56.566Z,9.40
2017-10-31T05:10:24.368Z,7.43
2017-10-31T05:12:52.266Z,6.72
2017-10-31T05:15:20.902Z,7.97
2017-10-31T05:17:48.695Z,8.60
2017-10-31T05:20:16.504Z,8.63
2017-10-31T05:22:44.365Z,16.40
2017-10-31T05:25:12.231Z,7.87
2017-10-31T05:27:40.055Z,10.60
2017-10-31T05:30:07.908Z,12.37
2017-10-31T05:32:35.770Z,6.03
2017-10-31T05:35:03.608Z,7.93
2017-10-31T05:37:31.537Z,9.93
2017-10-31T05:40:00.288Z,11.33
2017-10-31T05:42:28.116Z,9.17
2017-10-31T05:44:55.917Z,13.33
2017-10-31T05:47:23.817Z,12.13
2017-10-31T05:49:52.441Z,12.60
2017-10-31T05:52:20.264Z,9.13
2017-10-31T05:54:48.116Z,11.70
2017-10-31T05:57:15.954Z,10.10
2017-10-31T05:59:43.850Z,8.47
2017-10-31T06:02:11.736Z,8.87
2017-10-31T06:04:40.448Z,12.80
2017-10-31T06:07:08.320Z,15.27
2017-10-31T06:09:36.236Z,14.80
2017-10-31T06:12:04.194Z,13.73
2017-10-31T06:14:32.227Z,10.70
2017-10-31T06:17:00.040Z,9.23
2017-10-31T06:19:27.904Z,11.70
2017-10-31T06:22:01.331Z,12.30
2017-10-31T06:24:35.498Z,12.53
2017-10-31T06:27:09.001Z,9.40
2017-10-31T06:29:42.823Z,13.13
2017-10-31T06:32:10.800Z,14.17
2017-10-31T06:34:38.952Z,10.30
2017-10-31T06:37:06.767Z,9.80
2017-10-31T06:39:35.405Z,12.07
2017-10-31T06:42:03.345Z,12.13
2017-10-31T06:44:31.980Z,9.40
2017-10-31T06:46:59.852Z,10.10
2017-10-31T06:49:28.456Z,11.10
2017-10-31T06:51:56.279Z,12.65
2017-10-31T06:54:24.218Z,8.67
2017-10-31T06:56:52.136Z,10.17
2017-10-31T06:59:20.793Z,7.47
2017-10-31T07:01:48.665Z,14.23
2017-10-31T07:04:16.501Z,12.03
2017-10-31T07:06:44.328Z,12.90
2017-10-31T07:09:12.924Z,11.47
2017-10-31T07:11:41.552Z,17.63
2017-10-31T07:14:09.435Z,10.10
2017-10-31T07:16:37.340Z,8.47
2017-10-31T07:19:05.997Z,9.27
2017-10-31T07:21:33.827Z,10.77
2017-10-31T07:24:01.716Z,12.30
2017-10-31T07:26:29.590Z,14.57
2017-10-31T07:28:57.471Z,7.30
2017-10-31T07:31:25.434Z,14.60
2017-10-31T07:33:53.490Z,11.53
2017-10-31T07:36:21.319Z,16.97
2017-10-31T07:38:51.476Z,19.67
2017-10-31T07:41:19.304Z,7.97
2017-10-31T07:43:47.158Z,13.17
2017-10-31T07:46:15.751Z,14.13
2017-10-31T07:48:43.671Z,12.43
2017-10-31T07:51:11.591Z,9.83
2017-10-31T07:53:40.211Z,11.87
2017-10-31T07:56:08.052Z,15.13
2017-10-31T07:58:35.956Z,5.87
2017-10-31T08:01:03.835Z,8.57
2017-10-31T08:03:32.566Z,7.13
2017-10-31T08:06:01.204Z,9.83
2017-10-31T08:08:29.811Z,7.17
2017-10-31T08:10:57.648Z,13.03
2017-10-31T08:13:26.272Z,9.83
2017-10-31T08:15:54.132Z,9.67
2017-10-31T08:18:22.095Z,12.30
2017-10-31T08:20:50.209Z,10.97
2017-10-31T08:23:18.191Z,11.65
2017-10-31T08:25:46.069Z,8.80
2017-10-31T08:28:13.967Z,10.47
2017-10-31T08:30:41.873Z,11.23
2017-10-31T08:33:09.777Z,4.63
2017-10-31T08:35:37.798Z,11.10
2017-10-31T08:38:05.932Z,6.33
2017-10-31T08:40:34.896Z,9.37
2017-10-31T08:43:02.788Z,8.37
2017-10-31T08:45:31.703Z,7.83
2017-10-31T08:47:59.590Z,10.40
2017-10-31T08:50:27.465Z,11.00
2017-10-31T08:52:55.376Z,9.27
2017-10-31T08:55:24.004Z,9.10
2017-10-31T08:57:51.927Z,10.57
2017-10-31T09:00:20.822Z,30.80
2017-10-31T09:02:49.453Z,9.33
2017-10-31T09:05:17.327Z,9.20
2017-10-31T09:07:45.235Z,8.90
2017-10-31T09:10:13.894Z,10.30
2017-10-31T09:12:41.760Z,17.93
2017-10-31T09:15:09.617Z,13.13
2017-10-31T09:17:37.471Z,8.63
2017-10-31T09:20:06.342Z,11.00
2017-10-31T09:22:34.233Z,9.50
2017-10-31T09:25:02.300Z,16.53
2017-10-31T09:27:30.176Z,10.23
2017-10-31T09:29:58.022Z,10.43
2017-10-31T09:32:25.938Z,17.50
2017-10-31T09:34:53.980Z,9.17
2017-10-31T09:37:21.837Z,10.27
2017-10-31T09:39:49.711Z,11.43
2017-10-31T09:42:18.172Z,20.30
2017-10-31T09:44:46.108Z,6.43
2017-10-31T09:47:15.019Z,7.80
2017-10-31T09:49:42.944Z,8.77
2017-10-31T09:52:10.811Z,7.37
2017-10-31T09:54:38.658Z,7.67
2017-10-31T09:57:06.731Z,8.13
2017-10-31T09:59:34.582Z,6.30
2017-10-31T10:02:02.532Z,11.57
2017-10-31T10:04:31.134Z,7.30
2017-10-31T10:06:58.994Z,9.63
2017-10-31T10:09:26.861Z,5.57
2017-10-31T10:11:54.719Z,7.68
2017-10-31T10:14:22.823Z,13.90
2017-10-31T10:16:50.947Z,11.53
2017-10-31T10:19:18.912Z,11.93
2017-10-31T10:21:46.765Z,10.10
2017-10-31T10:24:15.392Z,6.03
2017-10-31T10:26:43.318Z,11.50
2017-10-31T10:29:11.528Z,6.37
2017-10-31T10:31:39.426Z,6.40
2017-10-31T10:34:07.669Z,6.57
2017-10-31T10:36:35.817Z,10.60
2017-10-31T10:39:03.869Z,13.20
2017-10-31T10:41:32.505Z,6.63
2017-10-31T10:44:00.371Z,17.13
2017-10-31T10:46:28.552Z,13.23
2017-10-31T10:48:56.411Z,8.60
2017-10-31T10:51:24.382Z,11.03
2017-10-31T10:56:29.491Z,9.00
2017-10-31T10:58:57.636Z,5.57
2017-10-31T11:01:26.327Z,5.83
2017-10-31T11:03:55.049Z,7.90
2017-10-31T11:06:22.941Z,7.63
2017-10-31T11:08:51.090Z,10.23
2017-10-31T11:11:19.114Z,9.63
2017-10-31T11:13:47.039Z,9.80
2017-10-31T11:16:14.933Z,6.87
2017-10-31T11:18:42.840Z,16.67
2017-10-31T11:21:11.514Z,12.27
2017-10-31T11:23:40.167Z,6.00
2017-10-31T11:26:08.047Z,11.67
2017-10-31T11:28:35.979Z,5.30
2017-10-31T11:31:03.869Z,11.00
2017-10-31T11:33:32.659Z,8.17
2017-10-31T11:36:00.535Z,4.50
2017-10-31T11:38:29.077Z,15.13
2017-10-31T11:40:56.929Z,9.10
2017-10-31T11:43:24.883Z,8.73
2017-10-31T11:45:53.504Z,6.33
2017-10-31T11:48:21.568Z,7.37
2017-10-31T11:50:50.704Z,4.03
2017-10-31T11:53:20.233Z,8.53
2017-10-31T11:55:48.867Z,5.60
2017-10-31T11:58:16.739Z,5.80
2017-10-31T12:00:44.613Z,6.50
2017-10-31T12:03:12.461Z,9.30
2017-10-31T12:05:40.309Z,5.30
2017-10-31T12:08:08.266Z,4.13
2017-10-31T12:10:36.918Z,11.53
2017-10-31T12:13:04.948Z,7.13
2017-10-31T12:15:32.797Z,9.53
2017-10-31T12:18:00.664Z,4.77
2017-10-31T12:20:28.523Z,8.77
2017-10-31T12:22:56.412Z,6.20
2017-10-31T12:25:24.320Z,8.30
2017-10-31T12:27:52.298Z,13.90
2017-10-31T12:30:20.270Z,8.23
2017-10-31T12:32:48.141Z,10.47
2017-10-31T12:35:17.214Z,7.00
2017-10-31T12:37:45.079Z,16.57
2017-10-31T12:40:13.141Z,5.20
2017-10-31T12:42:41.021Z,5.27
2017-10-31T12:45:08.893Z,6.30
2017-10-31T12:47:37.895Z,5.83
2017-10-31T12:50:06.547Z,10.07
2017-10-31T12:52:34.400Z,7.77
2017-10-31T12:55:02.310Z,7.07
2017-10-31T12:57:30.197Z,17.67
2017-10-31T12:59:58.828Z,10.00
2017-10-31T13:02:26.728Z,7.80
2017-10-31T13:04:54.673Z,4.63
2017-10-31T13:07:22.607Z,6.60
2017-10-31T13:09:50.526Z,5.40
2017-10-31T13:12:18.375Z,9.00
2017-10-31T13:14:46.418Z,5.80
2017-10-31T13:17:14.311Z,6.87
2017-10-31T13:19:43.122Z,5.77
2017-10-31T13:22:11.012Z,7.03
2017-10-31T13:24:39.704Z,4.13
2017-10-31T13:27:08.881Z,7.10
2017-10-31T13:29:38.820Z,7.27
2017-10-31T13:32:07.643Z,10.37
2017-10-31T13:34:36.028Z,9.20
2017-10-31T13:37:04.432Z,6.97
2017-10-31T13:39:32.799Z,7.83
2017-10-31T13:42:01.199Z,18.33
2017-10-31T13:44:31.850Z,10.20
2017-10-31T13:46:59.993Z,12.30
2017-10-31T13:49:28.687Z,12.97
2017-10-31T13:51:58.005Z,11.37
2017-10-31T13:54:26.714Z,8.23
2017-10-31T13:56:54.779Z,9.73
2017-10-31T13:59:22.951Z,9.00
2017-10-31T14:01:51.264Z,8.90
2017-10-31T14:04:20.025Z,10.27
2017-10-31T14:06:48.445Z,7.07
2017-10-31T14:09:17.232Z,7.83
2017-10-31T14:11:45.619Z,13.60
2017-10-31T14:14:13.758Z,9.93
2017-10-31T14:16:41.694Z,10.43
2017-10-31T14:19:09.772Z,9.67
2017-10-31T14:21:37.704Z,6.40
2017-10-31T14:24:05.888Z,14.60
2017-10-31T14:29:13.028Z,6.00
2017-10-31T14:31:46.231Z,10.17
2017-10-31T14:34:14.334Z,6.80
2017-10-31T14:36:42.485Z,13.63
2017-10-31T14:39:10.417Z,6.93
2017-10-31T14:41:38.460Z,7.03
2017-10-31T14:44:08.224Z,9.17
2017-10-31T14:46:36.143Z,8.33
2017-10-31T14:49:04.856Z,9.37
2017-10-31T14:51:33.929Z,5.30
2017-10-31T14:54:01.919Z,10.03
2017-10-31T14:56:29.820Z,8.40
2017-10-31T14:58:57.727Z,8.90
2017-10-31T15:01:26.408Z,6.43
2017-10-31T15:03:55.124Z,19.07
2017-10-31T15:06:23.054Z,7.40
2017-10-31T15:08:50.973Z,13.37
2017-10-31T15:11:19.119Z,5.17
2017-10-31T15:13:47.107Z,5.60
2017-10-31T15:16:15.006Z,7.40
2017-10-31T15:18:43.020Z,8.10
2017-10-31T15:21:10.977Z,9.00
2017-10-31T15:23:39.662Z,19.10
2017-10-31T15:26:08.961Z,5.47
2017-10-31T15:28:36.927Z,7.23
2017-10-31T15:31:05.719Z,12.90
2017-10-31T15:33:34.404Z,6.37
2017-10-31T15:36:03.098Z,10.63
2017-10-31T15:38:31.771Z,13.70
2017-10-31T15:41:00.466Z,7.07
2017-10-31T15:43:29.138Z,6.97
2017-10-31T15:45:58.407Z,11.47
2017-10-31T15:48:26.429Z,9.57
2017-10-31T15:50:54.570Z,8.80
2017-10-31T15:53:22.499Z,10.03
2017-10-31T15:55:50.446Z,7.07
2017-10-31T15:58:18.383Z,8.73
2017-10-31T16:00:46.550Z,8.57
2017-10-31T16:03:14.605Z,11.83
2017-10-31T16:05:42.486Z,5.20
2017-10-31T16:08:10.451Z,8.97
2017-10-31T16:10:38.418Z,10.03
2017-10-31T16:13:06.411Z,13.23
2017-10-31T16:15:36.106Z,10.20
2017-10-31T16:18:04.083Z,9.30
2017-10-31T16:20:32.003Z,10.90
2017-10-31T16:22:59.915Z,10.10
2017-10-31T16:25:27.856Z,11.13
2017-10-31T16:27:55.788Z,9.80
2017-10-31T16:30:23.743Z,8.90
2017-10-31T16:32:51.666Z,9.67
2017-10-31T16:35:20.532Z,9.70
2017-10-31T16:37:48.495Z,11.60
2017-10-31T16:40:16.556Z,5.43
2017-10-31T16:42:44.595Z,10.13
2017-10-31T16:45:13.287Z,8.53
2017-10-31T16:47:42.332Z,6.03
2017-10-31T16:50:10.246Z,8.83
2017-10-31T16:52:39.419Z,6.80
2017-10-31T16:55:07.498Z,9.10
2017-10-31T16:57:35.491Z,7.93
2017-10-31T17:00:04.281Z,10.73
2017-10-31T17:02:32.289Z,16.53
2017-10-31T17:05:00.202Z,5.67
2017-10-31T17:07:28.995Z,15.23
2017-10-31T17:10:04.373Z,7.90
2017-10-31T17:12:33.126Z,15.60
2017-10-31T17:15:01.988Z,9.97
2017-10-31T17:17:30.410Z,10.30
2017-10-31T17:19:59.093Z,11.67
2017-10-31T17:22:27.824Z,13.47
2017-10-31T17:24:55.851Z,12.53
2017-10-31T17:27:24.773Z,7.90
2017-10-31T17:29:52.602Z,7.87
2017-10-31T17:32:21.196Z,11.53
2017-10-31T17:34:49.209Z,14.37
2017-10-31T17:37:17.213Z,9.47
2017-10-31T17:39:45.989Z,16.23
2017-10-31T17:42:13.901Z,13.13
2017-10-31T17:44:42.191Z,8.60
2017-10-31T17:47:10.049Z,9.43
2017-10-31T17:49:42.572Z,17.07
2017-10-31T17:52:11.597Z,7.73
2017-10-31T17:54:51.758Z,17.80
2017-10-31T17:57:20.078Z,14.20
2017-10-31T17:59:48.263Z,14.43
2017-10-31T18:02:16.961Z,12.73
2017-10-31T18:04:45.912Z,10.93
2017-10-31T18:07:13.865Z,20.20
2017-10-31T18:09:41.789Z,10.63
2017-10-31T18:12:09.741Z,11.23
2017-10-31T18:14:37.711Z,14.23
2017-10-31T18:17:05.629Z,13.40
2017-10-31T18:19:33.530Z,6.70
2017-10-31T18:22:01.423Z,12.23
2017-10-31T18:24:29.360Z,14.70
2017-10-31T18:26:58.248Z,13.47
2017-10-31T18:29:27.266Z,11.73
2017-10-31T18:31:55.305Z,10.57
2017-10-31T18:34:23.215Z,8.13
2017-10-31T18:36:51.055Z,8.33
2017-10-31T18:39:18.992Z,19.97
2017-10-31T18:41:46.808Z,9.37
2017-10-31T18:44:14.762Z,14.20
2017-10-31T18:46:42.845Z,12.73
2017-10-31T18:49:10.938Z,16.17
2017-10-31T18:51:39.605Z,9.27
2017-10-31T18:54:07.510Z,14.90
2017-10-31T18:56:35.457Z,8.53
2017-10-31T18:59:04.292Z,20.07
2017-10-31T19:01:32.264Z,20.90
2017-10-31T19:04:00.159Z,28.03
2017-10-31T19:06:28.103Z,43.27
2017-10-31T19:08:57.142Z,39.70
2017-10-31T19:11:25.112Z,32.40
2017-10-31T19:13:53.819Z,28.90
2017-10-31T19:16:21.670Z,29.07
2017-10-31T19:18:50.324Z,25.73
2017-10-31T19:21:18.153Z,27.10
2017-10-31T19:23:46.029Z,30.93
2017-10-31T19:26:13.993Z,32.50
2017-10-31T19:28:41.895Z,23.33
2017-10-31T19:31:09.708Z,24.33
2017-10-31T19:33:37.584Z,22.37
2017-10-31T19:36:05.484Z,35.23
2017-10-31T19:38:33.475Z,53.13
2017-10-31T19:41:02.191Z,51.50
2017-10-31T19:43:30.177Z,49.17
2017-10-31T19:45:58.104Z,29.30
2017-10-31T19:48:26.815Z,30.03
2017-10-31T19:50:55.042Z,26.53
2017-10-31T19:53:23.157Z,16.20
2017-10-31T19:55:51.084Z,20.87
2017-10-31T19:58:18.963Z,19.87
2017-10-31T20:00:46.832Z,26.67
2017-10-31T20:03:14.684Z,18.03
2017-10-31T20:05:42.599Z,15.68
2017-10-31T20:08:10.506Z,14.87
2017-10-31T20:10:38.417Z,11.53
2017-10-31T20:13:07.087Z,13.30
2017-10-31T20:15:35.839Z,15.40
2017-10-31T20:18:03.704Z,18.47
2017-10-31T20:20:31.606Z,16.00
2017-10-31T20:22:59.450Z,20.43
2017-10-31T20:25:27.347Z,27.00
2017-10-31T20:27:55.944Z,32.13
2017-10-31T20:30:23.813Z,44.07
2017-10-31T20:32:52.424Z,49.20
2017-10-31T20:35:20.252Z,65.10
2017-10-31T20:37:48.921Z,64.77
2017-10-31T20:40:16.813Z,65.57
2017-10-31T20:42:45.406Z,48.07
2017-10-31T20:45:13.269Z,41.60
2017-10-31T20:47:41.157Z,31.67
2017-10-31T20:50:09.038Z,21.57
2017-10-31T20:52:36.948Z,14.30
2017-10-31T20:55:05.934Z,12.87
2017-10-31T20:57:33.993Z,20.43
2017-10-31T21:00:01.896Z,9.30
2017-10-31T21:02:30.535Z,13.33
2017-10-31T21:04:58.759Z,11.30
2017-10-31T21:07:26.848Z,10.53
2017-10-31T21:09:54.728Z,8.37
2017-10-31T21:12:22.797Z,11.40
2017-10-31T21:14:50.660Z,18.23
2017-10-31T21:17:18.668Z,16.10
2017-10-31T21:19:46.805Z,14.20
2017-10-31T21:22:14.775Z,17.23
2017-10-31T21:24:42.840Z,14.33
2017-10-31T21:27:10.862Z,15.13
2017-10-31T21:29:39.850Z,30.23
2017-10-31T21:32:08.622Z,15.23
2017-10-31T21:34:36.601Z,22.97
2017-10-31T21:37:05.353Z,18.97
2017-10-31T21:39:33.540Z,26.30
2017-10-31T21:42:01.569Z,24.33
2017-10-31T21:44:29.566Z,28.23
2017-10-31T21:46:57.535Z,29.67
2017-10-31T21:49:25.665Z,32.27
2017-10-31T21:51:54.396Z,31.33
2017-10-31T21:54:22.610Z,14.77
2017-10-31T21:56:50.666Z,9.40
2017-10-31T21:59:18.795Z,10.10
2017-10-31T22:01:46.822Z,12.30
2017-10-31T22:04:14.776Z,9.10
2017-10-31T22:06:42.744Z,6.13
2017-10-31T22:09:10.825Z,7.90
2017-10-31T22:11:39.592Z,12.30
2017-10-31T22:14:07.553Z,5.80
2017-10-31T22:16:36.101Z,6.20
2017-10-31T22:19:04.184Z,6.30
2017-10-31T22:21:32.119Z,8.00
2017-10-31T22:24:00.804Z,7.20
2017-10-31T22:26:29.448Z,6.37
2017-10-31T22:28:57.277Z,8.90
2017-10-31T22:31:25.387Z,6.43
2017-10-31T22:33:53.249Z,5.10
2017-10-31T22:36:21.155Z,4.73
2017-10-31T22:38:49.777Z,4.73
2017-10-31T22:41:17.686Z,6.00
2017-10-31T22:43:45.528Z,4.80
2017-10-31T22:46:13.362Z,7.53
2017-10-31T22:48:41.196Z,6.63
2017-10-31T22:51:09.467Z,4.57
2017-10-31T22:53:37.312Z,7.67
2017-10-31T22:56:05.140Z,4.30
2017-10-31T22:58:33.006Z,4.10
2017-10-31T23:01:02.062Z,3.37
2017-10-31T23:03:29.887Z,3.20
2017-10-31T23:05:57.733Z,5.43
2017-10-31T23:08:25.586Z,6.37
2017-10-31T23:10:54.329Z,6.07
2017-10-31T23:13:22.276Z,5.20
2017-10-31T23:15:50.200Z,4.60
2017-10-31T23:18:18.861Z,4.50
2017-10-31T23:20:46.717Z,6.50
2017-10-31T23:23:14.644Z,4.27
2017-10-31T23:25:42.480Z,4.50
2017-10-31T23:28:11.108Z,6.30
2017-10-31T23:30:38.923Z,5.70
2017-10-31T23:33:06.851Z,5.07
2017-10-31T23:35:34.926Z,4.83
2017-10-31T23:38:02.741Z,7.57
2017-10-31T23:40:31.608Z,10.03
2017-10-31T23:42:59.508Z,7.67
2017-10-31T23:45:27.415Z,4.13
2017-10-31T23:47:55.273Z,5.73
2017-10-31T23:50:23.182Z,4.47
2017-10-31T23:52:51.023Z,7.23
2017-10-31T23:55:18.851Z,5.50
2017-10-31T23:57:46.662Z,8.33
